createdAt,value
2023-04-24T00:00:13.823Z,5.30
2023-04-24T00:02:41.743Z,1.75
2023-04-24T00:05:10.189Z,2.88
2023-04-24T00:07:38.168Z,3.25
2023-04-24T00:10:06.559Z,2.65
2023-04-24T00:12:34.267Z,2.78
2023-04-24T00:15:02.503Z,3.47
2023-04-24T00:17:31.804Z,2.45
2023-04-24T00:20:00.215Z,2.97
2023-04-24T00:22:28.218Z,2.60
2023-04-24T00:24:56.549Z,4.20
2023-04-24T00:27:24.194Z,3.60
2023-04-24T00:29:52.005Z,1.83
2023-04-24T00:32:19.712Z,3.75
2023-04-24T00:34:48.933Z,2.80
2023-04-24T00:37:17.119Z,2.60
2023-04-24T00:39:45.132Z,4.00
2023-04-24T00:42:13.763Z,2.87
2023-04-24T00:44:41.519Z,3.28
2023-04-24T00:47:09.642Z,3.07
2023-04-24T00:49:37.462Z,1.93
2023-04-24T00:52:08.602Z,3.40
2023-04-24T00:54:36.423Z,2.20
2023-04-24T00:57:04.590Z,4.00
2023-04-24T00:59:32.652Z,4.00
2023-04-24T01:02:00.633Z,2.75
2023-04-24T01:04:28.564Z,2.80
2023-04-24T01:06:57.249Z,1.83
2023-04-24T01:09:27.027Z,3.58
2023-04-24T01:11:55.004Z,2.53
2023-04-24T01:14:22.696Z,1.50
2023-04-24T01:16:50.355Z,2.80
2023-04-24T01:19:20.920Z,3.07
2023-04-24T01:21:52.997Z,1.30
2023-04-24T01:24:22.455Z,3.10
2023-04-24T01:26:50.142Z,2.33
2023-04-24T01:29:18.032Z,1.55
2023-04-24T01:31:46.129Z,4.18
2023-04-24T01:34:14.421Z,2.00
2023-04-24T01:36:43.713Z,2.38
2023-04-24T01:39:11.614Z,2.65
2023-04-24T01:41:40.549Z,3.97
2023-04-24T01:44:08.285Z,2.17
2023-04-24T01:46:36.802Z,1.88
2023-04-24T01:49:04.591Z,3.17
2023-04-24T01:51:32.628Z,3.17
2023-04-24T01:54:00.441Z,2.03
2023-04-24T01:56:31.222Z,1.88
2023-04-24T01:59:01.739Z,2.10
2023-04-24T02:01:29.414Z,3.00
2023-04-24T02:03:57.269Z,2.35
2023-04-24T02:06:24.922Z,3.13
2023-04-24T02:08:52.575Z,2.47
2023-04-24T02:11:20.245Z,3.90
2023-04-24T02:13:47.968Z,4.10
2023-04-24T02:16:16.943Z,2.47
2023-04-24T02:18:44.546Z,1.88
2023-04-24T02:21:12.301Z,2.45
2023-04-24T02:23:39.950Z,2.20
2023-04-24T02:26:08.108Z,1.90
2023-04-24T02:28:35.850Z,2.90
2023-04-24T02:31:03.682Z,2.58
2023-04-24T02:33:32.728Z,2.33
2023-04-24T02:36:00.473Z,1.73
2023-04-24T02:38:28.226Z,1.88
2023-04-24T02:40:55.870Z,3.47
2023-04-24T02:43:23.582Z,3.47
2023-04-24T02:45:51.501Z,2.72
2023-04-24T02:48:19.638Z,3.30
2023-04-24T02:50:48.828Z,2.63
2023-04-24T02:53:16.509Z,1.73
2023-04-24T02:55:44.373Z,3.30
2023-04-24T02:58:13.765Z,2.92
2023-04-24T03:00:41.592Z,3.05
2023-04-24T03:03:09.456Z,1.83
2023-04-24T03:05:37.647Z,3.53
2023-04-24T03:08:07.163Z,2.45
2023-04-24T03:10:34.990Z,1.67
2023-04-24T03:13:02.685Z,2.80
2023-04-24T03:15:30.316Z,3.03
2023-04-24T03:17:57.941Z,2.38
2023-04-24T03:20:25.770Z,2.25
2023-04-24T03:22:53.432Z,1.65
2023-04-24T03:25:22.582Z,2.90
2023-04-24T03:27:50.200Z,1.70
2023-04-24T03:30:17.857Z,3.50
2023-04-24T03:32:45.669Z,2.67
2023-04-24T03:35:13.499Z,3.50
2023-04-24T03:37:41.167Z,2.85
2023-04-24T03:40:10.330Z,2.45
2023-04-24T03:42:39.798Z,2.13
2023-04-24T03:45:08.671Z,2.50
2023-04-24T03:47:36.361Z,2.72
2023-04-24T03:50:04.607Z,2.40
2023-04-24T03:52:32.252Z,5.88
2023-04-24T03:54:59.868Z,3.53
2023-04-24T03:57:27.521Z,4.60
2023-04-24T03:59:56.558Z,3.30
2023-04-24T04:02:24.525Z,4.15
2023-04-24T04:04:52.502Z,4.18
2023-04-24T04:07:20.428Z,4.22
2023-04-24T04:09:48.195Z,4.20
2023-04-24T04:12:16.075Z,4.65
2023-04-24T04:14:43.758Z,4.20
2023-04-24T04:17:13.072Z,3.40
2023-04-24T04:19:41.320Z,4.75
2023-04-24T04:22:09.265Z,4.80
2023-04-24T04:24:38.934Z,4.18
2023-04-24T04:27:07.059Z,4.40
2023-04-24T04:29:35.642Z,4.57
2023-04-24T04:32:04.055Z,4.50
2023-04-24T04:34:34.321Z,4.65
2023-04-24T04:37:03.200Z,4.55
2023-04-24T04:39:31.637Z,4.13
2023-04-24T04:41:59.542Z,6.37
2023-04-24T04:44:30.406Z,4.15
2023-04-24T04:47:00.129Z,3.87
2023-04-24T04:49:29.458Z,5.20
2023-04-24T04:51:58.648Z,6.75
2023-04-24T04:54:26.393Z,4.67
2023-04-24T04:56:54.186Z,4.63
2023-04-24T04:59:22.036Z,6.97
2023-04-24T05:01:49.686Z,5.50
2023-04-24T05:04:18.014Z,4.70
2023-04-24T05:06:46.030Z,5.25
2023-04-24T05:09:15.388Z,6.20
2023-04-24T05:11:43.115Z,7.13
2023-04-24T05:14:10.886Z,8.73
2023-04-24T05:16:38.889Z,6.78
2023-04-24T05:19:06.772Z,6.32
2023-04-24T05:21:34.547Z,6.57
2023-04-24T05:24:02.676Z,6.47
2023-04-24T05:26:31.828Z,6.05
2023-04-24T05:28:59.552Z,6.38
2023-04-24T05:31:27.470Z,6.00
2023-04-24T05:33:55.267Z,7.70
2023-04-24T05:36:22.971Z,4.90
2023-04-24T05:38:50.739Z,6.15
2023-04-24T05:41:18.362Z,5.83
2023-04-24T05:43:47.714Z,6.13
2023-04-24T05:46:15.427Z,6.67
2023-04-24T05:48:43.199Z,5.57
2023-04-24T05:51:11.755Z,5.53
2023-04-24T05:53:39.472Z,4.87
2023-04-24T05:56:07.593Z,6.25
2023-04-24T05:58:35.783Z,6.20
2023-04-24T06:01:04.895Z,6.10
2023-04-24T06:03:32.746Z,4.23
2023-04-24T06:06:00.818Z,5.70
2023-04-24T06:08:28.595Z,5.67
2023-04-24T06:10:56.215Z,4.05
2023-04-24T06:13:23.923Z,4.65
2023-04-24T06:15:51.592Z,4.40
2023-04-24T06:18:20.579Z,5.22
2023-04-24T06:20:52.827Z,5.45
2023-04-24T06:23:20.580Z,3.97
2023-04-24T06:25:50.118Z,3.63
2023-04-24T06:28:17.804Z,5.20
2023-04-24T06:30:46.080Z,4.35
2023-04-24T06:35:48.226Z,3.92
2023-04-24T06:38:17.054Z,4.57
2023-04-24T06:40:45.154Z,3.13
2023-04-24T06:43:12.903Z,3.47
2023-04-24T06:45:41.231Z,3.15
2023-04-24T06:48:09.129Z,2.67
2023-04-24T06:50:37.084Z,2.40
2023-04-24T06:53:06.136Z,2.30
2023-04-24T06:55:33.949Z,4.03
2023-04-24T06:58:01.622Z,2.25
2023-04-24T07:00:30.674Z,2.88
2023-04-24T07:02:58.731Z,3.40
2023-04-24T07:05:26.878Z,3.47
2023-04-24T07:07:54.614Z,3.30
2023-04-24T07:10:24.562Z,3.38
2023-04-24T07:12:52.586Z,2.65
2023-04-24T07:15:20.368Z,2.75
2023-04-24T07:17:49.003Z,2.22
2023-04-24T07:20:17.052Z,3.15
2023-04-24T07:22:45.566Z,3.85
2023-04-24T07:25:13.539Z,2.40
2023-04-24T07:27:42.697Z,4.32
2023-04-24T07:30:11.413Z,2.07
2023-04-24T07:32:39.331Z,2.10
2023-04-24T07:35:07.960Z,2.42
2023-04-24T07:37:35.921Z,2.00
2023-04-24T07:40:04.773Z,2.63
2023-04-24T07:42:32.736Z,2.55
2023-04-24T07:45:01.818Z,2.05
2023-04-24T07:47:29.684Z,2.75
2023-04-24T07:49:57.735Z,2.42
2023-04-24T07:52:25.945Z,2.83
2023-04-24T07:54:59.318Z,3.50
2023-04-24T07:57:27.085Z,1.83
2023-04-24T07:59:54.903Z,3.33
2023-04-24T08:02:27.539Z,4.00
2023-04-24T08:04:55.899Z,2.58
2023-04-24T08:07:24.061Z,2.60
2023-04-24T08:09:51.915Z,2.40
2023-04-24T08:12:19.629Z,3.40
2023-04-24T08:14:47.352Z,4.68
2023-04-24T08:17:15.070Z,4.03
2023-04-24T08:19:48.445Z,3.13
2023-04-24T08:22:16.555Z,2.80
2023-04-24T08:24:44.698Z,2.20
2023-04-24T08:27:12.634Z,2.53
2023-04-24T08:29:40.556Z,4.18
2023-04-24T08:32:08.397Z,3.53
2023-04-24T08:34:36.078Z,3.35
2023-04-24T08:37:05.320Z,3.97
2023-04-24T08:39:33.198Z,4.33
2023-04-24T08:42:06.331Z,4.45
2023-04-24T08:44:34.736Z,3.10
2023-04-24T08:47:04.228Z,5.13
2023-04-24T08:49:32.193Z,3.53
2023-04-24T08:52:00.783Z,3.10
2023-04-24T08:54:30.940Z,2.95
2023-04-24T08:57:02.426Z,3.33
2023-04-24T08:59:30.306Z,3.47
2023-04-24T09:01:58.846Z,3.42
2023-04-24T09:04:27.792Z,3.43
2023-04-24T09:06:57.846Z,2.75
2023-04-24T09:09:26.067Z,4.60
2023-04-24T09:11:56.547Z,2.78
2023-04-24T09:14:25.069Z,3.55
2023-04-24T09:16:52.814Z,4.27
2023-04-24T09:19:22.661Z,3.22
2023-04-24T09:21:50.315Z,3.50
2023-04-24T09:24:21.829Z,4.23
2023-04-24T09:26:49.670Z,4.60
2023-04-24T09:29:19.987Z,3.90
2023-04-24T09:31:48.144Z,5.07
2023-04-24T09:34:16.049Z,3.47
2023-04-24T09:36:45.281Z,4.78
2023-04-24T09:39:16.536Z,3.47
2023-04-24T09:41:47.985Z,3.58
2023-04-24T09:44:18.820Z,3.22
2023-04-24T09:46:51.595Z,2.47
2023-04-24T09:49:24.568Z,2.70
2023-04-24T09:51:52.866Z,2.92
2023-04-24T09:54:22.856Z,2.33
2023-04-24T09:56:52.384Z,4.00
2023-04-24T09:59:21.860Z,2.75
2023-04-24T10:01:50.508Z,4.07
2023-04-24T10:04:20.469Z,3.90
2023-04-24T10:06:49.825Z,3.05
2023-04-24T10:09:17.985Z,2.35
2023-04-24T10:11:47.178Z,4.97
2023-04-24T10:14:16.179Z,3.75
2023-04-24T10:16:47.908Z,2.88
2023-04-24T10:19:16.983Z,4.00
2023-04-24T10:21:47.512Z,3.92
2023-04-24T10:24:16.616Z,3.08
2023-04-24T10:26:45.084Z,3.03
2023-04-24T10:29:14.573Z,3.63
2023-04-24T10:31:42.748Z,4.43
2023-04-24T10:34:12.303Z,5.15
2023-04-24T10:36:43.632Z,3.53
2023-04-24T10:39:14.152Z,3.72
2023-04-24T10:41:41.833Z,4.35
2023-04-24T10:44:10.902Z,3.53
2023-04-24T10:46:39.423Z,4.13
2023-04-24T10:49:09.706Z,3.80
2023-04-24T10:51:49.824Z,4.65
2023-04-24T10:54:29.192Z,5.65
2023-04-24T10:57:33.631Z,5.40
2023-04-24T11:00:21.143Z,3.50
2023-04-24T11:02:53.870Z,3.38
2023-04-24T11:05:22.856Z,4.00
2023-04-24T11:08:14.197Z,4.53
2023-04-24T11:10:43.081Z,4.57
2023-04-24T11:13:12.704Z,4.30
2023-04-24T11:15:44.175Z,6.70
2023-04-24T11:18:16.395Z,5.37
2023-04-24T11:20:45.145Z,5.22
2023-04-24T11:23:15.953Z,6.07
2023-04-24T11:25:43.784Z,5.15
2023-04-24T11:28:18.185Z,5.55
2023-04-24T11:30:45.812Z,6.00
2023-04-24T11:33:13.970Z,4.87
2023-04-24T11:35:42.696Z,5.63
2023-04-24T11:38:23.980Z,5.85
2023-04-24T11:40:54.334Z,5.40
2023-04-24T11:43:23.119Z,4.97
2023-04-24T11:45:51.228Z,5.50
2023-04-24T11:48:22.701Z,5.15
2023-04-24T11:50:51.482Z,3.78
2023-04-24T11:53:21.558Z,3.70
2023-04-24T11:55:49.188Z,3.90
2023-04-24T11:58:22.961Z,5.60
2023-04-24T12:00:59.379Z,4.95
2023-04-24T12:03:27.436Z,5.35
2023-04-24T12:06:06.495Z,4.55
2023-04-24T12:08:34.923Z,6.18
2023-04-24T12:11:04.878Z,5.60
2023-04-24T12:13:33.900Z,5.05
2023-04-24T12:16:02.001Z,5.45
2023-04-24T12:18:29.764Z,5.28
2023-04-24T12:21:01.248Z,4.38
2023-04-24T12:23:36.844Z,6.80
2023-04-24T12:26:06.085Z,6.03
2023-04-24T12:28:39.365Z,4.20
2023-04-24T12:31:08.856Z,6.15
2023-04-24T12:33:37.778Z,6.18
2023-04-24T12:36:06.365Z,6.18
2023-04-24T12:38:41.045Z,5.18
2023-04-24T12:41:10.540Z,4.97
2023-04-24T12:43:39.697Z,5.13
2023-04-24T12:46:07.765Z,5.18
2023-04-24T12:48:35.779Z,4.65
2023-04-24T12:51:03.483Z,4.80
2023-04-24T12:53:32.318Z,5.63
2023-04-24T12:56:00.322Z,5.53
2023-04-24T12:58:28.137Z,5.68
2023-04-24T13:00:57.242Z,5.07
2023-04-24T13:03:25.345Z,4.63
2023-04-24T13:05:53.212Z,4.67
2023-04-24T13:08:20.872Z,4.40
2023-04-24T13:10:48.572Z,5.20
2023-04-24T13:13:16.306Z,4.43
2023-04-24T13:15:43.896Z,4.13
2023-04-24T13:18:13.170Z,4.70
2023-04-24T13:20:42.044Z,7.10
2023-04-24T13:23:09.637Z,4.50
2023-04-24T13:25:40.289Z,4.87
2023-04-24T13:28:08.037Z,4.03
2023-04-24T13:30:35.699Z,4.53
2023-04-24T13:33:06.329Z,5.70
2023-04-24T13:35:35.340Z,3.67
2023-04-24T13:38:06.859Z,4.38
2023-04-24T13:40:35.145Z,4.95
2023-04-24T13:43:03.089Z,5.45
2023-04-24T13:45:30.934Z,4.10
2023-04-24T13:47:58.987Z,7.05
2023-04-24T13:50:26.670Z,5.22
2023-04-24T13:52:57.653Z,4.45
2023-04-24T13:55:25.478Z,4.05
2023-04-24T13:57:56.198Z,5.28
2023-04-24T14:00:24.560Z,6.22
2023-04-24T14:02:52.763Z,5.72
2023-04-24T14:05:22.002Z,6.50
2023-04-24T14:07:49.745Z,5.13
2023-04-24T14:10:18.780Z,6.32
2023-04-24T14:12:46.582Z,6.03
2023-04-24T14:15:15.134Z,7.90
2023-04-24T14:17:42.869Z,6.43
2023-04-24T14:20:11.330Z,5.95
2023-04-24T14:22:39.157Z,6.85
2023-04-24T14:25:08.176Z,5.82
2023-04-24T14:27:37.267Z,5.93
2023-04-24T14:30:05.694Z,4.35
2023-04-24T14:32:33.589Z,4.13
2023-04-24T14:35:01.266Z,5.72
2023-04-24T14:37:29.071Z,3.88
2023-04-24T14:40:13.567Z,3.77
2023-04-24T14:42:46.634Z,5.05
2023-04-24T14:45:14.333Z,4.57
2023-04-24T14:47:42.101Z,5.18
2023-04-24T14:50:10.701Z,5.47
2023-04-24T14:52:38.585Z,5.10
2023-04-24T14:55:07.899Z,4.40
2023-04-24T14:57:35.599Z,5.40
2023-04-24T15:00:07.238Z,5.25
2023-04-24T15:02:35.521Z,4.88
2023-04-24T15:05:03.957Z,4.93
2023-04-24T15:07:32.009Z,5.95
2023-04-24T15:09:59.697Z,5.45
2023-04-24T15:12:27.713Z,4.20
2023-04-24T15:14:55.330Z,4.00
2023-04-24T15:17:24.350Z,4.40
2023-04-24T15:19:51.987Z,6.35
2023-04-24T15:22:19.826Z,6.88
2023-04-24T15:24:47.576Z,5.60
2023-04-24T15:27:15.499Z,4.18
2023-04-24T15:29:44.297Z,3.65
2023-04-24T15:32:12.080Z,7.53
2023-04-24T15:34:41.379Z,4.73
2023-04-24T15:37:09.065Z,4.50
2023-04-24T15:39:36.746Z,5.30
2023-04-24T15:42:04.683Z,7.35
2023-04-24T15:44:32.305Z,6.07
2023-04-24T15:47:03.040Z,8.27
2023-04-24T15:49:30.699Z,8.50
2023-04-24T15:51:59.736Z,6.33
2023-04-24T15:54:27.401Z,3.80
2023-04-24T15:56:55.120Z,6.18
2023-04-24T15:59:23.733Z,2.92
2023-04-24T16:01:52.229Z,4.47
2023-04-24T16:04:20.019Z,3.78
2023-04-24T16:06:48.379Z,2.42
2023-04-24T16:09:17.399Z,4.63
2023-04-24T16:11:45.187Z,6.67
2023-04-24T16:14:13.043Z,5.75
2023-04-24T16:16:40.827Z,4.50
2023-04-24T16:19:08.645Z,4.18
2023-04-24T16:21:36.548Z,9.90
2023-04-24T16:24:04.362Z,5.18
2023-04-24T16:26:33.451Z,16.13
2023-04-24T16:29:01.245Z,3.00
2023-04-24T16:31:29.147Z,4.45
2023-04-24T16:33:56.897Z,9.07
2023-04-24T16:36:24.607Z,7.22
2023-04-24T16:38:52.251Z,4.97
2023-04-24T16:41:19.983Z,2.08
2023-04-24T16:43:49.009Z,3.45
2023-04-24T16:46:16.674Z,4.50
2023-04-24T16:48:44.487Z,4.10
2023-04-24T16:51:12.291Z,3.85
2023-04-24T16:53:40.615Z,4.60
2023-04-24T16:56:08.397Z,3.63
2023-04-24T16:58:35.975Z,4.18
2023-04-24T17:01:05.332Z,3.55
2023-04-24T17:03:33.100Z,3.30
2023-04-24T17:06:00.864Z,3.50
2023-04-24T17:08:29.772Z,4.07
2023-04-24T17:10:57.745Z,3.70
2023-04-24T17:13:25.423Z,5.90
2023-04-24T17:15:55.418Z,3.60
2023-04-24T17:18:25.070Z,2.97
2023-04-24T17:20:52.939Z,6.03
2023-04-24T17:23:21.950Z,3.33
2023-04-24T17:25:49.987Z,4.40
2023-04-24T17:28:26.108Z,3.90
2023-04-24T17:30:55.533Z,6.10
2023-04-24T17:33:25.012Z,5.18
2023-04-24T17:35:53.082Z,4.10
2023-04-24T17:38:20.875Z,4.93
2023-04-24T17:40:52.725Z,6.40
2023-04-24T17:43:20.484Z,22.50
2023-04-24T17:45:49.110Z,32.38
2023-04-24T17:48:19.699Z,3.97
2023-04-24T17:50:48.952Z,7.97
2023-04-24T17:53:18.800Z,5.47
2023-04-24T17:55:47.569Z,6.15
2023-04-24T17:58:16.072Z,4.70
2023-04-24T18:00:43.867Z,5.10
2023-04-24T18:03:11.707Z,3.63
2023-04-24T18:05:40.695Z,5.50
2023-04-24T18:08:09.864Z,4.63
2023-04-24T18:10:37.593Z,5.70
2023-04-24T18:13:06.516Z,4.72
2023-04-24T18:15:35.486Z,5.40
2023-04-24T18:18:03.870Z,5.45
2023-04-24T18:20:32.044Z,5.22
2023-04-24T18:23:01.525Z,5.43
2023-04-24T18:25:32.072Z,6.00
2023-04-24T18:27:59.905Z,4.60
2023-04-24T18:30:28.308Z,5.40
2023-04-24T18:32:56.334Z,4.45
2023-04-24T18:35:24.732Z,4.13
2023-04-24T18:37:54.169Z,7.37
2023-04-24T18:40:22.240Z,8.18
2023-04-24T18:42:51.451Z,4.82
2023-04-24T18:45:19.228Z,4.15
2023-04-24T18:47:47.088Z,6.03
2023-04-24T18:50:15.715Z,4.63
2023-04-24T18:52:43.631Z,5.72
2023-04-24T18:55:11.643Z,5.90
2023-04-24T18:57:39.421Z,6.55
2023-04-24T19:00:10.364Z,4.00
2023-04-24T19:02:38.337Z,4.28
2023-04-24T19:05:06.867Z,4.70
2023-04-24T19:07:34.651Z,5.35
2023-04-24T19:10:02.457Z,4.45
2023-04-24T19:12:30.261Z,6.43
2023-04-24T19:14:58.677Z,5.15
2023-04-24T19:17:27.893Z,5.10
2023-04-24T19:19:55.650Z,8.27
2023-04-24T19:22:23.390Z,8.27
2023-04-24T19:24:51.156Z,13.55
2023-04-24T19:27:18.929Z,8.45
2023-04-24T19:29:46.690Z,6.40
2023-04-24T19:32:14.614Z,8.25
2023-04-24T19:34:43.846Z,4.40
2023-04-24T19:37:11.828Z,6.53
2023-04-24T19:39:39.584Z,5.35
2023-04-24T19:42:07.783Z,8.65
2023-04-24T19:44:35.863Z,5.07
2023-04-24T19:47:03.919Z,5.53
2023-04-24T19:49:31.731Z,6.25
2023-04-24T19:52:00.826Z,6.18
2023-04-24T19:54:29.011Z,12.67
2023-04-24T19:56:57.016Z,10.20
2023-04-24T19:59:25.121Z,4.53
2023-04-24T20:01:53.842Z,16.58
2023-04-24T20:04:23.230Z,9.60
2023-04-24T20:06:51.265Z,7.20
2023-04-24T20:09:20.538Z,10.85
2023-04-24T20:11:51.042Z,33.22
2023-04-24T20:14:18.983Z,14.95
2023-04-24T20:16:46.667Z,7.95
2023-04-24T20:19:14.291Z,11.90
2023-04-24T20:21:42.006Z,11.95
2023-04-24T20:24:10.700Z,12.32
2023-04-24T20:26:40.066Z,19.33
2023-04-24T20:29:08.756Z,9.27
2023-04-24T20:31:36.804Z,8.77
2023-04-24T20:34:06.224Z,10.32
2023-04-24T20:36:34.647Z,8.95
2023-04-24T20:39:04.180Z,34.55
2023-04-24T20:41:31.843Z,32.00
2023-04-24T20:44:01.611Z,10.40
2023-04-24T20:46:29.398Z,13.93
2023-04-24T20:48:57.081Z,19.30
2023-04-24T20:51:24.758Z,11.20
2023-04-24T20:53:52.429Z,12.10
2023-04-24T20:56:21.227Z,6.18
2023-04-24T20:58:49.454Z,6.47
2023-04-24T21:01:19.178Z,5.97
2023-04-24T21:03:47.083Z,6.68
2023-04-24T21:06:15.169Z,5.57
2023-04-24T21:08:42.836Z,5.10
2023-04-24T21:11:10.545Z,7.18
2023-04-24T21:13:38.225Z,5.20
2023-04-24T21:16:06.281Z,5.10
2023-04-24T21:18:40.809Z,6.10
2023-04-24T21:21:09.314Z,5.28
2023-04-24T21:23:37.282Z,5.22
2023-04-24T21:26:05.339Z,6.40
2023-04-24T21:28:33.275Z,5.53
2023-04-24T21:31:00.970Z,5.75
2023-04-24T21:33:29.124Z,5.78
2023-04-24T21:35:58.158Z,5.18
2023-04-24T21:38:25.782Z,4.72
2023-04-24T21:40:53.727Z,5.50
2023-04-24T21:43:28.087Z,4.97
2023-04-24T21:46:01.511Z,5.50
2023-04-24T21:48:29.116Z,5.47
2023-04-24T21:50:58.168Z,5.07
2023-04-24T21:53:25.854Z,5.53
2023-04-24T21:55:53.508Z,4.57
2023-04-24T21:58:21.113Z,6.60
2023-04-24T22:00:48.750Z,4.03
2023-04-24T22:03:16.841Z,4.32
2023-04-24T22:05:45.011Z,4.35
2023-04-24T22:08:14.177Z,4.97
2023-04-24T22:10:41.797Z,4.35
2023-04-24T22:13:09.748Z,5.65
2023-04-24T22:15:37.419Z,3.47
2023-04-24T22:18:06.626Z,3.90
2023-04-24T22:20:34.814Z,3.72
2023-04-24T22:23:02.661Z,3.80
2023-04-24T22:25:31.747Z,3.47
2023-04-24T22:27:59.435Z,4.40
2023-04-24T22:30:27.037Z,3.90
2023-04-24T22:32:54.758Z,4.20
2023-04-24T22:35:22.445Z,4.13
2023-04-24T22:37:55.152Z,3.30
2023-04-24T22:40:23.000Z,4.38
2023-04-24T22:42:52.499Z,5.63
2023-04-24T22:45:23.483Z,3.88
2023-04-24T22:47:51.520Z,4.35
2023-04-24T22:50:20.288Z,5.28
2023-04-24T22:52:48.736Z,4.00
2023-04-24T22:55:16.471Z,5.13
2023-04-24T22:57:44.164Z,4.88
2023-04-24T23:00:14.039Z,5.10
2023-04-24T23:02:42.779Z,4.72
2023-04-24T23:05:11.855Z,4.80
2023-04-24T23:07:39.622Z,4.07
2023-04-24T23:10:08.402Z,4.55
2023-04-24T23:12:36.357Z,5.55
2023-04-24T23:15:04.496Z,4.75
2023-04-24T23:17:33.782Z,4.75
2023-04-24T23:20:01.829Z,5.55
2023-04-24T23:22:29.824Z,5.97
2023-04-24T23:24:57.559Z,5.57
2023-04-24T23:27:25.538Z,4.80
2023-04-24T23:29:53.208Z,5.65
2023-04-24T23:32:20.919Z,4.88
2023-04-24T23:34:50.752Z,4.55
2023-04-24T23:37:19.300Z,5.47
2023-04-24T23:39:46.955Z,4.10
2023-04-24T23:42:14.665Z,4.88
2023-04-24T23:44:43.113Z,3.80
2023-04-24T23:47:11.098Z,4.30
2023-04-24T23:49:38.653Z,3.92
2023-04-24T23:52:07.849Z,4.20
2023-04-24T23:54:35.838Z,4.23
2023-04-24T23:57:04.510Z,4.97
2023-04-24T23:59:32.136Z,5.50
